createdAt,value
2023-04-11T00:04:37.186Z,390.15
2023-04-11T00:10:23.853Z,392.71
2023-04-11T00:16:11.153Z,392.87
2023-04-11T00:21:53.919Z,392.14
2023-04-11T00:27:36.358Z,393.74
2023-04-11T00:33:18.712Z,394.95
2023-04-11T00:44:22.490Z,394.80
2023-04-11T00:55:22.224Z,392.31
2023-04-11T01:01:05.141Z,391.08
2023-04-11T01:06:47.915Z,389.91
2023-04-11T01:13:11.301Z,391.62
2023-04-11T01:18:21.219Z,392.29
2023-04-11T01:24:06.847Z,393.71
2023-04-11T01:29:25.657Z,395.18
2023-04-11T01:35:45.343Z,397.69
2023-04-11T01:41:34.928Z,398.01
2023-04-11T01:45:19.256Z,397.77
2023-04-11T01:51:01.168Z,397.14
2023-04-11T02:02:05.432Z,398.49
2023-04-11T02:07:51.007Z,398.86
2023-04-11T02:13:07.855Z,397.79
2023-04-11T02:18:55.560Z,398.04
2023-04-11T02:24:39.218Z,400.00
2023-04-11T02:30:21.754Z,399.99
2023-04-11T02:35:50.854Z,398.57
2023-04-11T02:42:35.044Z,399.22
2023-04-11T02:47:42.630Z,397.60
2023-04-11T02:58:20.887Z,400.91
2023-04-11T03:04:18.417Z,401.87
2023-04-11T03:15:21.913Z,402.54
2023-04-11T03:21:21.677Z,401.56
2023-04-11T03:32:15.323Z,400.64
2023-04-11T03:37:33.957Z,400.83
2023-04-11T03:43:21.584Z,401.04
2023-04-11T03:49:10.743Z,397.83
2023-04-11T03:55:08.226Z,399.74
2023-04-11T04:07:03.327Z,398.86
2023-04-11T04:12:52.778Z,398.13
2023-04-11T04:17:31.728Z,397.35
2023-04-11T04:23:34.549Z,398.22
2023-04-11T04:28:34.174Z,398.74
2023-04-11T04:34:25.576Z,397.56
2023-04-11T04:40:06.584Z,395.79
2023-04-11T04:46:13.862Z,396.15
2023-04-11T04:52:25.439Z,396.43
2023-04-11T04:58:08.007Z,395.66
2023-04-11T05:09:34.990Z,395.53
2023-04-11T05:15:17.609Z,394.09
2023-04-11T05:20:36.174Z,392.34
2023-04-11T05:25:53.003Z,391.60
2023-04-11T05:31:03.185Z,389.80
2023-04-11T05:36:10.544Z,389.55
2023-04-11T05:41:17.947Z,389.10
2023-04-11T05:46:25.383Z,389.19
2023-04-11T05:51:32.845Z,388.08
2023-04-11T05:56:40.226Z,387.29
2023-04-11T06:01:47.675Z,386.14
2023-04-11T06:06:54.871Z,386.69
2023-04-11T06:12:02.242Z,386.53
2023-04-11T06:17:09.629Z,385.48
2023-04-11T06:22:16.853Z,384.49
2023-04-11T06:27:24.078Z,383.05
2023-04-11T06:32:31.697Z,382.26
2023-04-11T06:37:38.988Z,382.75
2023-04-11T06:42:52.836Z,383.53
2023-04-11T06:48:00.415Z,383.85
2023-04-11T06:53:07.640Z,383.26
2023-04-11T06:58:15.029Z,383.21
2023-04-11T07:03:22.548Z,382.88
2023-04-11T07:08:30.045Z,382.10
2023-04-11T07:13:37.628Z,381.36
2023-04-11T07:18:44.928Z,380.50
2023-04-11T07:23:52.129Z,381.10
2023-04-11T07:28:59.628Z,381.57
2023-04-11T07:34:07.078Z,381.10
2023-04-11T07:39:14.452Z,379.03
2023-04-11T07:44:22.226Z,380.89
2023-04-11T07:49:29.133Z,380.56
2023-04-11T07:54:36.749Z,381.14
2023-04-11T07:59:44.096Z,380.93
2023-04-11T08:04:51.570Z,380.35
2023-04-11T08:09:58.699Z,380.20
2023-04-11T08:15:06.059Z,379.42
2023-04-11T08:20:13.611Z,378.41
2023-04-11T08:25:20.931Z,378.71
2023-04-11T08:30:28.474Z,378.55
2023-04-11T08:35:35.961Z,377.38
2023-04-11T08:40:43.259Z,376.22
2023-04-11T08:45:50.645Z,375.01
2023-04-11T08:50:58.029Z,373.73
2023-04-11T08:56:05.458Z,373.40
2023-04-11T09:01:12.799Z,371.95
2023-04-11T09:06:19.989Z,372.04
2023-04-11T09:11:27.361Z,370.30
2023-04-11T09:16:34.668Z,369.71
2023-04-11T09:21:42.083Z,368.43
2023-04-11T09:26:49.578Z,368.39
2023-04-11T09:31:56.906Z,367.27
2023-04-11T09:37:04.243Z,367.83
2023-04-11T09:42:11.456Z,368.30
2023-04-11T09:47:18.671Z,368.01
2023-04-11T09:52:25.982Z,367.10
2023-04-11T09:57:33.411Z,367.38
2023-04-11T10:02:41.016Z,367.25
2023-04-11T10:07:48.149Z,366.17
2023-04-11T10:12:55.429Z,365.98
2023-04-11T10:18:02.698Z,366.62
2023-04-11T10:23:10.199Z,367.03
2023-04-11T10:28:17.343Z,367.57
2023-04-11T10:33:24.570Z,366.39
2023-04-11T10:38:31.840Z,366.61
2023-04-11T10:43:39.361Z,365.43
2023-04-11T10:48:46.636Z,363.94
2023-04-11T10:53:53.970Z,364.09
2023-04-11T10:59:01.242Z,364.26
2023-04-11T11:04:09.011Z,363.92
2023-04-11T11:09:15.732Z,365.37
2023-04-11T11:14:23.004Z,365.70
2023-04-11T11:19:30.320Z,364.98
2023-04-11T11:24:37.628Z,366.62
2023-04-11T11:29:44.967Z,365.41
2023-04-11T11:34:52.258Z,366.02
2023-04-11T11:39:59.557Z,366.60
2023-04-11T11:45:06.809Z,368.05
2023-04-11T11:50:14.119Z,366.66
2023-04-11T11:55:21.380Z,367.35
2023-04-11T12:00:28.566Z,367.40
2023-04-11T12:05:36.006Z,367.31
2023-04-11T12:10:43.300Z,368.29
2023-04-11T12:15:50.348Z,368.50
2023-04-11T12:20:57.597Z,368.94
2023-04-11T12:26:04.834Z,368.69
2023-04-11T12:31:11.969Z,369.09
2023-04-11T12:36:19.194Z,368.26
2023-04-11T12:46:33.913Z,366.50
2023-04-11T12:51:40.886Z,366.28
2023-04-11T12:56:48.349Z,366.64
2023-04-11T13:01:55.421Z,365.57
2023-04-11T13:07:02.538Z,364.64
2023-04-11T13:12:09.754Z,364.74
2023-04-11T13:17:16.931Z,365.17
2023-04-11T13:22:24.098Z,365.32
2023-04-11T13:27:31.320Z,366.27
2023-04-11T13:32:38.678Z,366.36
2023-04-11T13:37:45.776Z,367.02
2023-04-11T13:42:53.091Z,367.46
2023-04-11T13:48:00.339Z,368.00
2023-04-11T13:53:07.435Z,366.44
2023-04-11T13:58:14.700Z,367.11
2023-04-11T14:03:21.875Z,366.89
2023-04-11T14:08:29.343Z,367.49
2023-04-11T14:13:36.380Z,368.38
2023-04-11T14:18:43.542Z,368.27
2023-04-11T14:23:50.913Z,367.72
2023-04-11T14:28:58.123Z,367.97
2023-04-11T14:34:05.317Z,367.98
2023-04-11T14:39:12.601Z,367.70
2023-04-11T14:44:19.900Z,368.05
2023-04-11T14:49:27.062Z,367.62
2023-04-11T14:54:34.248Z,368.50
2023-04-11T14:59:42.418Z,367.44
2023-04-11T15:04:49.709Z,368.55
2023-04-11T15:09:56.785Z,368.98
2023-04-11T15:15:04.013Z,369.92
2023-04-11T15:20:11.164Z,370.33
2023-04-11T15:25:18.436Z,371.55
2023-04-11T15:30:25.675Z,372.38
2023-04-11T15:35:32.911Z,373.36
2023-04-11T15:40:40.150Z,374.79
2023-04-11T15:45:47.432Z,375.39
2023-04-11T15:50:54.563Z,375.86
2023-04-11T15:56:01.746Z,375.53
2023-04-11T16:01:08.964Z,376.53
2023-04-11T16:06:16.123Z,376.84
2023-04-11T16:11:23.320Z,376.58
2023-04-11T16:16:30.576Z,377.66
2023-04-11T16:21:37.699Z,378.27
2023-04-11T16:26:44.961Z,377.82
2023-04-11T16:31:52.327Z,379.08
2023-04-11T16:36:59.492Z,379.17
2023-04-11T16:42:06.612Z,379.43
2023-04-11T16:47:13.996Z,379.94
2023-04-11T16:52:21.205Z,380.75
2023-04-11T16:57:28.398Z,381.68
2023-04-11T17:02:35.772Z,381.04
2023-04-11T17:07:42.778Z,382.14
2023-04-11T17:12:50.025Z,381.83
2023-04-11T17:17:57.281Z,382.01
2023-04-11T17:23:04.410Z,381.60
2023-04-11T17:28:11.603Z,381.57
2023-04-11T17:33:18.850Z,382.38
2023-04-11T17:38:26.098Z,382.06
2023-04-11T17:43:33.237Z,381.93
2023-04-11T17:48:40.458Z,382.67
2023-04-11T17:53:47.648Z,382.93
2023-04-11T17:58:54.899Z,382.35
2023-04-11T18:04:02.706Z,382.61
2023-04-11T18:09:09.262Z,382.93
2023-04-11T18:14:16.452Z,383.74
2023-04-11T18:19:23.671Z,383.54
2023-04-11T18:24:31.053Z,383.66
2023-04-11T18:29:38.415Z,383.98
2023-04-11T18:34:45.989Z,383.95
2023-04-11T18:39:53.195Z,383.69
2023-04-11T18:45:00.504Z,383.70
2023-04-11T18:50:08.269Z,383.51
2023-04-11T18:55:15.597Z,384.10
2023-04-11T19:00:23.119Z,383.87
2023-04-11T19:05:30.913Z,384.50
2023-04-11T19:10:38.077Z,384.84
2023-04-11T19:15:45.659Z,384.50
2023-04-11T19:20:53.404Z,384.97
2023-04-11T19:26:01.036Z,384.15
2023-04-11T19:31:08.604Z,384.40
2023-04-11T19:36:16.239Z,384.53
2023-04-11T19:41:23.942Z,385.17
2023-04-11T19:46:32.711Z,385.17
2023-04-11T19:51:40.423Z,385.70
2023-04-11T19:56:47.823Z,386.14
2023-04-11T20:01:55.401Z,387.63
2023-04-11T20:07:03.201Z,388.38
2023-04-11T20:12:10.470Z,389.41
2023-04-11T20:17:17.720Z,389.80
2023-04-11T20:22:24.985Z,390.06
2023-04-11T20:27:32.470Z,390.21
2023-04-11T20:32:39.942Z,390.24
2023-04-11T20:37:47.234Z,389.93
2023-04-11T20:42:54.487Z,390.64
2023-04-11T20:48:01.928Z,390.02
2023-04-11T20:53:09.071Z,389.66
2023-04-11T20:58:16.252Z,390.46
2023-04-11T21:03:23.521Z,390.48
2023-04-11T21:08:30.708Z,390.59
2023-04-11T21:13:37.838Z,391.41
2023-04-11T21:18:45.086Z,391.87
2023-04-11T21:23:52.288Z,392.19
2023-04-11T21:28:59.529Z,392.43
2023-04-11T21:34:06.817Z,392.85
2023-04-11T21:39:14.172Z,393.58
2023-04-11T21:44:21.271Z,394.44
2023-04-11T21:49:28.466Z,393.96
2023-04-11T21:54:35.787Z,394.99
2023-04-11T21:59:42.947Z,395.13
2023-04-11T22:05:04.635Z,395.06
2023-04-11T22:09:57.540Z,395.55
2023-04-11T22:15:04.685Z,395.66
2023-04-11T22:20:11.880Z,396.55
2023-04-11T22:25:19.498Z,396.57
2023-04-11T22:30:26.646Z,397.10
2023-04-11T22:35:33.941Z,397.69
2023-04-11T22:40:41.136Z,398.05
2023-04-11T22:45:48.354Z,399.08
2023-04-11T22:50:55.604Z,399.01
2023-04-11T22:56:02.794Z,399.39
2023-04-11T23:01:10.012Z,399.39
2023-04-11T23:06:17.148Z,399.55
2023-04-11T23:11:24.462Z,399.92
2023-04-11T23:16:31.734Z,400.63
2023-04-11T23:21:39.068Z,401.46
2023-04-11T23:26:46.404Z,401.93
2023-04-11T23:31:53.562Z,402.40
2023-04-11T23:37:00.826Z,402.40
2023-04-11T23:42:08.089Z,403.29
2023-04-11T23:47:15.332Z,403.61
2023-04-11T23:52:22.502Z,403.95
2023-04-11T23:57:29.830Z,404.13
